sensor_id;sensor_type;location;lat;lon;timestamp;P1;durP1;ratioP1;P2;durP2;ratioP2
7473;SDS011;3778;42.572;23.426;2022-08-01T00:02:18;10.40;;;7.40;;
7473;SDS011;3778;42.572;23.426;2022-08-01T00:04:44;8.17;;;6.77;;
7473;SDS011;3778;42.572;23.426;2022-08-01T00:07:11;8.97;;;7.30;;
7473;SDS011;3778;42.572;23.426;2022-08-01T00:09:38;8.47;;;7.13;;
7473;SDS011;3778;42.572;23.426;2022-08-01T00:12:06;10.93;;;6.87;;
7473;SDS011;3778;42.572;23.426;2022-08-01T00:14:33;8.13;;;7.33;;
7473;SDS011;3778;42.572;23.426;2022-08-01T00:17:00;7.97;;;6.70;;
7473;SDS011;3778;42.572;23.426;2022-08-01T00:19:27;8.10;;;7.30;;
7473;SDS011;3778;42.572;23.426;2022-08-01T00:21:54;7.37;;;6.67;;
7473;SDS011;3778;42.572;23.426;2022-08-01T00:24:21;11.13;;;6.87;;
7473;SDS011;3778;42.572;23.426;2022-08-01T00:26:48;7.33;;;6.63;;
7473;SDS011;3778;42.572;23.426;2022-08-01T00:29:16;10.77;;;6.70;;
7473;SDS011;3778;42.572;23.426;2022-08-01T00:31:43;7.33;;;5.80;;
7473;SDS011;3778;42.572;23.426;2022-08-01T00:34:09;7.60;;;6.80;;
7473;SDS011;3778;42.572;23.426;2022-08-01T00:36:37;7.60;;;6.57;;
7473;SDS011;3778;42.572;23.426;2022-08-01T00:39:03;8.90;;;7.20;;
7473;SDS011;3778;42.572;23.426;2022-08-01T00:41:30;6.00;;;5.47;;
7473;SDS011;3778;42.572;23.426;2022-08-01T00:44:01;7.43;;;5.83;;
7473;SDS011;3778;42.572;23.426;2022-08-01T00:46:30;8.33;;;5.63;;
7473;SDS011;3778;42.572;23.426;2022-08-01T00:48:57;6.47;;;5.87;;
7473;SDS011;3778;42.572;23.426;2022-08-01T00:51:24;6.93;;;5.53;;
7473;SDS011;3778;42.572;23.426;2022-08-01T00:53:52;7.53;;;5.03;;
7473;SDS011;3778;42.572;23.426;2022-08-01T00:56:19;8.77;;;4.90;;
7473;SDS011;3778;42.572;23.426;2022-08-01T00:58:47;7.43;;;5.07;;
7473;SDS011;3778;42.572;23.426;2022-08-01T01:01:14;8.80;;;5.67;;
7473;SDS011;3778;42.572;23.426;2022-08-01T01:03:42;5.90;;;5.30;;
7473;SDS011;3778;42.572;23.426;2022-08-01T01:06:13;6.57;;;5.37;;
7473;SDS011;3778;42.572;23.426;2022-08-01T01:08:51;5.87;;;5.27;;
7473;SDS011;3778;42.572;23.426;2022-08-01T01:11:30;7.07;;;6.00;;
7473;SDS011;3778;42.572;23.426;2022-08-01T01:14:04;6.43;;;5.83;;
7473;SDS011;3778;42.572;23.426;2022-08-01T01:16:36;10.10;;;5.87;;
7473;SDS011;3778;42.572;23.426;2022-08-01T01:19:08;8.20;;;5.97;;
7473;SDS011;3778;42.572;23.426;2022-08-01T01:21:50;12.70;;;6.50;;
7473;SDS011;3778;42.572;23.426;2022-08-01T01:24:39;7.43;;;6.20;;
7473;SDS011;3778;42.572;23.426;2022-08-01T01:27:18;8.80;;;5.50;;
7473;SDS011;3778;42.572;23.426;2022-08-01T01:29:52;6.20;;;5.60;;
7473;SDS011;3778;42.572;23.426;2022-08-01T01:32:23;6.23;;;5.63;;
7473;SDS011;3778;42.572;23.426;2022-08-01T01:34:58;10.97;;;6.37;;
7473;SDS011;3778;42.572;23.426;2022-08-01T01:37:28;13.53;;;5.60;;
7473;SDS011;3778;42.572;23.426;2022-08-01T01:39:58;6.93;;;5.03;;
7473;SDS011;3778;42.572;23.426;2022-08-01T01:42:27;6.40;;;5.80;;
7473;SDS011;3778;42.572;23.426;2022-08-01T01:44:58;5.67;;;5.17;;
7473;SDS011;3778;42.572;23.426;2022-08-01T01:47:27;7.30;;;5.43;;
7473;SDS011;3778;42.572;23.426;2022-08-01T01:49:54;7.03;;;4.80;;
7473;SDS011;3778;42.572;23.426;2022-08-01T01:52:23;7.07;;;4.60;;
7473;SDS011;3778;42.572;23.426;2022-08-01T01:54:52;5.60;;;4.70;;
7473;SDS011;3778;42.572;23.426;2022-08-01T01:57:22;8.70;;;5.97;;
7473;SDS011;3778;42.572;23.426;2022-08-01T01:59:50;5.80;;;5.27;;
7473;SDS011;3778;42.572;23.426;2022-08-01T02:02:21;7.47;;;4.83;;
7473;SDS011;3778;42.572;23.426;2022-08-01T02:04:50;6.47;;;5.27;;
7473;SDS011;3778;42.572;23.426;2022-08-01T02:07:19;7.03;;;4.87;;
7473;SDS011;3778;42.572;23.426;2022-08-01T02:09:48;5.73;;;5.23;;
7473;SDS011;3778;42.572;23.426;2022-08-01T02:12:17;4.93;;;4.40;;
7473;SDS011;3778;42.572;23.426;2022-08-01T02:14:47;6.53;;;4.50;;
7473;SDS011;3778;42.572;23.426;2022-08-01T02:17:17;6.40;;;4.77;;
7473;SDS011;3778;42.572;23.426;2022-08-01T02:19:47;6.40;;;4.37;;
7473;SDS011;3778;42.572;23.426;2022-08-01T02:22:16;8.33;;;4.60;;
7473;SDS011;3778;42.572;23.426;2022-08-01T02:24:48;5.77;;;4.83;;
7473;SDS011;3778;42.572;23.426;2022-08-01T02:27:21;7.23;;;5.13;;
7473;SDS011;3778;42.572;23.426;2022-08-01T02:29:52;5.33;;;4.67;;
7473;SDS011;3778;42.572;23.426;2022-08-01T02:32:23;8.23;;;4.50;;
7473;SDS011;3778;42.572;23.426;2022-08-01T02:34:54;5.33;;;4.83;;
7473;SDS011;3778;42.572;23.426;2022-08-01T02:37:23;4.67;;;4.27;;
7473;SDS011;3778;42.572;23.426;2022-08-01T02:39:53;5.90;;;4.93;;
7473;SDS011;3778;42.572;23.426;2022-08-01T02:42:21;4.97;;;4.23;;
7473;SDS011;3778;42.572;23.426;2022-08-01T02:44:51;4.43;;;3.73;;
7473;SDS011;3778;42.572;23.426;2022-08-01T02:47:20;6.33;;;4.43;;
7473;SDS011;3778;42.572;23.426;2022-08-01T02:49:50;6.63;;;4.47;;
7473;SDS011;3778;42.572;23.426;2022-08-01T02:52:21;7.13;;;4.10;;
7473;SDS011;3778;42.572;23.426;2022-08-01T02:54:51;5.97;;;3.97;;
7473;SDS011;3778;42.572;23.426;2022-08-01T02:57:21;4.00;;;3.50;;
7473;SDS011;3778;42.572;23.426;2022-08-01T02:59:49;5.23;;;4.03;;
7473;SDS011;3778;42.572;23.426;2022-08-01T03:02:17;5.63;;;3.80;;
7473;SDS011;3778;42.572;23.426;2022-08-01T03:04:46;8.10;;;3.97;;
7473;SDS011;3778;42.572;23.426;2022-08-01T03:07:16;4.70;;;3.77;;
7473;SDS011;3778;42.572;23.426;2022-08-01T03:09:46;6.27;;;3.77;;
7473;SDS011;3778;42.572;23.426;2022-08-01T03:12:16;6.00;;;3.70;;
7473;SDS011;3778;42.572;23.426;2022-08-01T03:14:45;4.80;;;3.87;;
7473;SDS011;3778;42.572;23.426;2022-08-01T03:17:14;5.07;;;3.77;;
7473;SDS011;3778;42.572;23.426;2022-08-01T03:19:44;6.87;;;4.00;;
7473;SDS011;3778;42.572;23.426;2022-08-01T03:22:12;5.33;;;3.90;;
7473;SDS011;3778;42.572;23.426;2022-08-01T03:24:41;6.13;;;4.00;;
7473;SDS011;3778;42.572;23.426;2022-08-01T03:27:10;7.30;;;4.17;;
7473;SDS011;3778;42.572;23.426;2022-08-01T03:29:39;4.50;;;3.50;;
7473;SDS011;3778;42.572;23.426;2022-08-01T03:32:07;4.67;;;3.47;;
7473;SDS011;3778;42.572;23.426;2022-08-01T03:34:36;5.83;;;3.67;;
7473;SDS011;3778;42.572;23.426;2022-08-01T03:37:05;6.47;;;3.73;;
7473;SDS011;3778;42.572;23.426;2022-08-01T03:39:39;5.27;;;3.57;;
7473;SDS011;3778;42.572;23.426;2022-08-01T03:42:14;6.13;;;4.87;;
7473;SDS011;3778;42.572;23.426;2022-08-01T03:44:47;4.77;;;3.40;;
7473;SDS011;3778;42.572;23.426;2022-08-01T03:47:18;4.93;;;3.43;;
7473;SDS011;3778;42.572;23.426;2022-08-01T03:49:50;6.43;;;3.17;;
7473;SDS011;3778;42.572;23.426;2022-08-01T03:52:18;5.97;;;3.43;;
7473;SDS011;3778;42.572;23.426;2022-08-01T03:54:46;4.20;;;3.47;;
7473;SDS011;3778;42.572;23.426;2022-08-01T03:57:17;6.33;;;3.63;;
7473;SDS011;3778;42.572;23.426;2022-08-01T03:59:45;4.10;;;3.70;;
7473;SDS011;3778;42.572;23.426;2022-08-01T04:02:14;3.93;;;3.47;;
7473;SDS011;3778;42.572;23.426;2022-08-01T04:04:43;4.23;;;3.03;;
7473;SDS011;3778;42.572;23.426;2022-08-01T04:07:21;3.93;;;3.43;;
7473;SDS011;3778;42.572;23.426;2022-08-01T04:09:49;4.20;;;3.40;;
7473;SDS011;3778;42.572;23.426;2022-08-01T04:12:16;7.37;;;3.50;;
7473;SDS011;3778;42.572;23.426;2022-08-01T04:14:44;3.87;;;3.50;;
7473;SDS011;3778;42.572;23.426;2022-08-01T04:17:11;10.10;;;3.27;;
7473;SDS011;3778;42.572;23.426;2022-08-01T04:19:38;5.57;;;3.53;;
7473;SDS011;3778;42.572;23.426;2022-08-01T04:22:05;5.03;;;3.53;;
7473;SDS011;3778;42.572;23.426;2022-08-01T04:24:33;4.20;;;3.30;;
7473;SDS011;3778;42.572;23.426;2022-08-01T04:27:04;5.57;;;3.30;;
7473;SDS011;3778;42.572;23.426;2022-08-01T04:29:37;7.23;;;3.37;;
7473;SDS011;3778;42.572;23.426;2022-08-01T04:32:05;5.90;;;2.90;;
7473;SDS011;3778;42.572;23.426;2022-08-01T04:34:34;3.60;;;3.23;;
7473;SDS011;3778;42.572;23.426;2022-08-01T04:37:06;6.87;;;3.00;;
7473;SDS011;3778;42.572;23.426;2022-08-01T04:39:35;3.60;;;3.30;;
7473;SDS011;3778;42.572;23.426;2022-08-01T04:42:04;5.63;;;3.43;;
7473;SDS011;3778;42.572;23.426;2022-08-01T04:44:32;4.23;;;3.27;;
7473;SDS011;3778;42.572;23.426;2022-08-01T04:47:00;5.17;;;3.37;;
7473;SDS011;3778;42.572;23.426;2022-08-01T04:49:29;3.73;;;3.07;;
7473;SDS011;3778;42.572;23.426;2022-08-01T04:51:57;4.73;;;3.07;;
7473;SDS011;3778;42.572;23.426;2022-08-01T04:54:25;4.43;;;4.03;;
7473;SDS011;3778;42.572;23.426;2022-08-01T04:56:53;4.50;;;3.20;;
7473;SDS011;3778;42.572;23.426;2022-08-01T04:59:24;5.00;;;3.13;;
7473;SDS011;3778;42.572;23.426;2022-08-01T05:02:08;4.00;;;3.13;;
7473;SDS011;3778;42.572;23.426;2022-08-01T05:04:36;4.90;;;2.87;;
7473;SDS011;3778;42.572;23.426;2022-08-01T05:07:04;3.30;;;3.00;;
7473;SDS011;3778;42.572;23.426;2022-08-01T05:09:32;8.37;;;3.00;;
7473;SDS011;3778;42.572;23.426;2022-08-01T05:11:59;5.60;;;4.07;;
7473;SDS011;3778;42.572;23.426;2022-08-01T05:14:27;4.80;;;3.17;;
7473;SDS011;3778;42.572;23.426;2022-08-01T05:16:56;5.93;;;3.10;;
7473;SDS011;3778;42.572;23.426;2022-08-01T05:19:25;4.60;;;3.20;;
7473;SDS011;3778;42.572;23.426;2022-08-01T05:21:52;3.13;;;2.80;;
7473;SDS011;3778;42.572;23.426;2022-08-01T05:24:19;3.33;;;3.00;;
7473;SDS011;3778;42.572;23.426;2022-08-01T05:26:47;5.37;;;3.43;;
7473;SDS011;3778;42.572;23.426;2022-08-01T05:29:14;5.97;;;3.00;;
7473;SDS011;3778;42.572;23.426;2022-08-01T05:31:41;3.73;;;3.23;;
7473;SDS011;3778;42.572;23.426;2022-08-01T05:34:08;6.07;;;3.40;;
7473;SDS011;3778;42.572;23.426;2022-08-01T05:36:36;5.30;;;3.10;;
7473;SDS011;3778;42.572;23.426;2022-08-01T05:39:03;4.93;;;3.30;;
7473;SDS011;3778;42.572;23.426;2022-08-01T05:41:30;5.10;;;2.93;;
7473;SDS011;3778;42.572;23.426;2022-08-01T05:43:57;3.13;;;2.83;;
7473;SDS011;3778;42.572;23.426;2022-08-01T05:46:24;3.80;;;3.00;;
7473;SDS011;3778;42.572;23.426;2022-08-01T05:48:50;3.43;;;3.13;;
7473;SDS011;3778;42.572;23.426;2022-08-01T05:51:17;3.80;;;3.37;;
7473;SDS011;3778;42.572;23.426;2022-08-01T05:53:45;3.50;;;3.03;;
7473;SDS011;3778;42.572;23.426;2022-08-01T05:56:12;7.07;;;2.70;;
7473;SDS011;3778;42.572;23.426;2022-08-01T05:58:39;8.33;;;3.40;;
7473;SDS011;3778;42.572;23.426;2022-08-01T06:01:06;6.17;;;3.17;;
7473;SDS011;3778;42.572;23.426;2022-08-01T06:03:33;4.97;;;3.40;;
7473;SDS011;3778;42.572;23.426;2022-08-01T06:06:00;5.87;;;3.27;;
7473;SDS011;3778;42.572;23.426;2022-08-01T06:08:27;3.73;;;2.93;;
7473;SDS011;3778;42.572;23.426;2022-08-01T06:10:55;4.47;;;3.07;;
7473;SDS011;3778;42.572;23.426;2022-08-01T06:13:22;3.37;;;2.93;;
7473;SDS011;3778;42.572;23.426;2022-08-01T06:15:49;5.77;;;3.60;;
7473;SDS011;3778;42.572;23.426;2022-08-01T06:18:16;6.43;;;3.00;;
7473;SDS011;3778;42.572;23.426;2022-08-01T06:20:43;5.17;;;2.93;;
7473;SDS011;3778;42.572;23.426;2022-08-01T06:23:10;4.23;;;3.73;;
7473;SDS011;3778;42.572;23.426;2022-08-01T06:25:36;4.50;;;2.80;;
7473;SDS011;3778;42.572;23.426;2022-08-01T06:28:04;10.00;;;3.67;;
7473;SDS011;3778;42.572;23.426;2022-08-01T06:30:31;3.33;;;2.80;;
7473;SDS011;3778;42.572;23.426;2022-08-01T06:32:58;7.40;;;3.20;;
7473;SDS011;3778;42.572;23.426;2022-08-01T06:35:25;5.30;;;3.30;;
7473;SDS011;3778;42.572;23.426;2022-08-01T06:37:53;3.47;;;2.90;;
7473;SDS011;3778;42.572;23.426;2022-08-01T06:40:20;3.93;;;2.67;;
7473;SDS011;3778;42.572;23.426;2022-08-01T06:42:47;3.30;;;2.77;;
7473;SDS011;3778;42.572;23.426;2022-08-01T06:45:15;5.17;;;3.37;;
7473;SDS011;3778;42.572;23.426;2022-08-01T06:47:42;6.00;;;3.43;;
7473;SDS011;3778;42.572;23.426;2022-08-01T06:50:11;5.10;;;2.60;;
7473;SDS011;3778;42.572;23.426;2022-08-01T06:52:39;3.40;;;2.70;;
7473;SDS011;3778;42.572;23.426;2022-08-01T06:55:06;5.13;;;3.63;;
7473;SDS011;3778;42.572;23.426;2022-08-01T06:57:34;3.87;;;3.00;;
7473;SDS011;3778;42.572;23.426;2022-08-01T07:00:02;3.70;;;3.23;;
7473;SDS011;3778;42.572;23.426;2022-08-01T07:02:32;5.13;;;3.43;;
7473;SDS011;3778;42.572;23.426;2022-08-01T07:04:59;3.60;;;2.70;;
7473;SDS011;3778;42.572;23.426;2022-08-01T07:07:26;4.67;;;2.93;;
7473;SDS011;3778;42.572;23.426;2022-08-01T07:09:53;3.07;;;2.77;;
7473;SDS011;3778;42.572;23.426;2022-08-01T07:12:19;8.47;;;3.07;;
7473;SDS011;3778;42.572;23.426;2022-08-01T07:14:46;4.50;;;3.20;;
7473;SDS011;3778;42.572;23.426;2022-08-01T07:17:13;4.97;;;3.03;;
7473;SDS011;3778;42.572;23.426;2022-08-01T07:19:42;5.70;;;3.27;;
7473;SDS011;3778;42.572;23.426;2022-08-01T07:22:08;3.93;;;3.27;;
7473;SDS011;3778;42.572;23.426;2022-08-01T07:24:35;5.70;;;3.10;;
7473;SDS011;3778;42.572;23.426;2022-08-01T07:27:02;9.27;;;3.10;;
7473;SDS011;3778;42.572;23.426;2022-08-01T07:29:29;3.77;;;2.87;;
7473;SDS011;3778;42.572;23.426;2022-08-01T07:31:56;5.13;;;3.20;;
7473;SDS011;3778;42.572;23.426;2022-08-01T07:34:23;3.53;;;3.23;;
7473;SDS011;3778;42.572;23.426;2022-08-01T07:36:53;3.33;;;2.93;;
7473;SDS011;3778;42.572;23.426;2022-08-01T07:39:19;5.20;;;3.17;;
7473;SDS011;3778;42.572;23.426;2022-08-01T07:41:47;4.47;;;3.10;;
7473;SDS011;3778;42.572;23.426;2022-08-01T07:44:13;5.13;;;3.30;;
7473;SDS011;3778;42.572;23.426;2022-08-01T07:46:40;4.83;;;3.30;;
7473;SDS011;3778;42.572;23.426;2022-08-01T07:49:07;7.60;;;3.67;;
7473;SDS011;3778;42.572;23.426;2022-08-01T07:51:34;6.93;;;3.40;;
7473;SDS011;3778;42.572;23.426;2022-08-01T07:54:02;4.27;;;3.00;;
7473;SDS011;3778;42.572;23.426;2022-08-01T07:56:29;4.53;;;4.00;;
7473;SDS011;3778;42.572;23.426;2022-08-01T07:58:55;5.27;;;3.40;;
7473;SDS011;3778;42.572;23.426;2022-08-01T08:01:22;4.20;;;3.27;;
7473;SDS011;3778;42.572;23.426;2022-08-01T08:03:49;7.13;;;3.20;;
7473;SDS011;3778;42.572;23.426;2022-08-01T08:06:15;4.03;;;3.27;;
7473;SDS011;3778;42.572;23.426;2022-08-01T08:08:42;2.93;;;2.63;;
7473;SDS011;3778;42.572;23.426;2022-08-01T08:11:10;3.30;;;3.00;;
7473;SDS011;3778;42.572;23.426;2022-08-01T08:13:37;5.53;;;3.10;;
7473;SDS011;3778;42.572;23.426;2022-08-01T08:16:04;6.03;;;3.37;;
7473;SDS011;3778;42.572;23.426;2022-08-01T08:18:31;9.47;;;3.40;;
7473;SDS011;3778;42.572;23.426;2022-08-01T08:20:57;6.03;;;2.70;;
7473;SDS011;3778;42.572;23.426;2022-08-01T08:23:24;4.00;;;3.37;;
7473;SDS011;3778;42.572;23.426;2022-08-01T08:26:08;2.80;;;2.60;;
7473;SDS011;3778;42.572;23.426;2022-08-01T08:28:37;4.97;;;2.80;;
7473;SDS011;3778;42.572;23.426;2022-08-01T08:31:04;3.40;;;2.80;;
7473;SDS011;3778;42.572;23.426;2022-08-01T08:33:30;3.67;;;2.70;;
7473;SDS011;3778;42.572;23.426;2022-08-01T08:35:57;2.67;;;2.47;;
7473;SDS011;3778;42.572;23.426;2022-08-01T08:38:24;3.10;;;2.80;;
7473;SDS011;3778;42.572;23.426;2022-08-01T08:40:52;7.67;;;3.20;;
7473;SDS011;3778;42.572;23.426;2022-08-01T08:43:22;4.07;;;3.17;;
7473;SDS011;3778;42.572;23.426;2022-08-01T08:45:54;3.87;;;3.03;;
7473;SDS011;3778;42.572;23.426;2022-08-01T08:48:22;5.97;;;3.10;;
7473;SDS011;3778;42.572;23.426;2022-08-01T08:50:49;4.07;;;3.60;;
7473;SDS011;3778;42.572;23.426;2022-08-01T08:53:17;4.47;;;3.00;;
7473;SDS011;3778;42.572;23.426;2022-08-01T08:55:45;3.40;;;3.00;;
7473;SDS011;3778;42.572;23.426;2022-08-01T08:58:12;6.27;;;3.27;;
7473;SDS011;3778;42.572;23.426;2022-08-01T09:00:41;3.33;;;3.03;;
7473;SDS011;3778;42.572;23.426;2022-08-01T09:03:09;5.53;;;3.20;;
7473;SDS011;3778;42.572;23.426;2022-08-01T09:05:36;3.00;;;2.70;;
7473;SDS011;3778;42.572;23.426;2022-08-01T09:08:06;5.30;;;3.33;;
7473;SDS011;3778;42.572;23.426;2022-08-01T09:10:33;3.20;;;2.90;;
7473;SDS011;3778;42.572;23.426;2022-08-01T09:13:03;5.03;;;3.07;;
7473;SDS011;3778;42.572;23.426;2022-08-01T09:15:38;5.47;;;3.10;;
7473;SDS011;3778;42.572;23.426;2022-08-01T09:18:10;3.20;;;2.60;;
7473;SDS011;3778;42.572;23.426;2022-08-01T09:20:59;3.13;;;2.83;;
7473;SDS011;3778;42.572;23.426;2022-08-01T09:23:34;4.53;;;2.83;;
7473;SDS011;3778;42.572;23.426;2022-08-01T09:26:04;3.37;;;2.83;;
7473;SDS011;3778;42.572;23.426;2022-08-01T09:28:31;3.20;;;2.90;;
7473;SDS011;3778;42.572;23.426;2022-08-01T09:30:58;3.30;;;2.77;;
7473;SDS011;3778;42.572;23.426;2022-08-01T09:36:26;6.70;;;3.10;;
7473;SDS011;3778;42.572;23.426;2022-08-01T09:39:23;3.40;;;2.83;;
7473;SDS011;3778;42.572;23.426;2022-08-01T09:41:51;3.17;;;2.70;;
7473;SDS011;3778;42.572;23.426;2022-08-01T09:44:18;3.73;;;2.50;;
7473;SDS011;3778;42.572;23.426;2022-08-01T09:46:52;3.80;;;3.13;;
7473;SDS011;3778;42.572;23.426;2022-08-01T09:49:27;4.27;;;3.20;;
7473;SDS011;3778;42.572;23.426;2022-08-01T09:51:56;3.00;;;2.67;;
7473;SDS011;3778;42.572;23.426;2022-08-01T09:54:29;3.87;;;3.00;;
7473;SDS011;3778;42.572;23.426;2022-08-01T09:59:45;3.43;;;2.60;;
7473;SDS011;3778;42.572;23.426;2022-08-01T10:02:14;3.63;;;2.67;;
7473;SDS011;3778;42.572;23.426;2022-08-01T10:04:53;3.13;;;2.83;;
7473;SDS011;3778;42.572;23.426;2022-08-01T10:07:21;3.47;;;2.80;;
7473;SDS011;3778;42.572;23.426;2022-08-01T10:09:48;4.07;;;3.00;;
7473;SDS011;3778;42.572;23.426;2022-08-01T10:12:16;3.03;;;2.73;;
7473;SDS011;3778;42.572;23.426;2022-08-01T10:14:44;4.80;;;3.13;;
7473;SDS011;3778;42.572;23.426;2022-08-01T10:17:13;4.73;;;3.13;;
7473;SDS011;3778;42.572;23.426;2022-08-01T10:19:41;4.87;;;3.43;;
7473;SDS011;3778;42.572;23.426;2022-08-01T10:22:09;3.07;;;2.77;;
7473;SDS011;3778;42.572;23.426;2022-08-01T10:24:40;5.73;;;3.17;;
7473;SDS011;3778;42.572;23.426;2022-08-01T10:27:08;3.90;;;3.60;;
7473;SDS011;3778;42.572;23.426;2022-08-01T10:29:36;4.73;;;3.03;;
7473;SDS011;3778;42.572;23.426;2022-08-01T10:32:07;5.27;;;3.10;;
7473;SDS011;3778;42.572;23.426;2022-08-01T10:34:35;3.17;;;2.63;;
7473;SDS011;3778;42.572;23.426;2022-08-01T10:37:03;3.63;;;3.27;;
7473;SDS011;3778;42.572;23.426;2022-08-01T10:39:30;3.67;;;3.00;;
7473;SDS011;3778;42.572;23.426;2022-08-01T10:41:59;5.30;;;3.00;;
7473;SDS011;3778;42.572;23.426;2022-08-01T10:44:27;4.23;;;3.57;;
7473;SDS011;3778;42.572;23.426;2022-08-01T10:46:57;3.30;;;3.00;;
7473;SDS011;3778;42.572;23.426;2022-08-01T10:49:29;3.97;;;3.00;;
7473;SDS011;3778;42.572;23.426;2022-08-01T10:52:01;3.33;;;3.03;;
7473;SDS011;3778;42.572;23.426;2022-08-01T10:54:28;2.90;;;2.70;;
7473;SDS011;3778;42.572;23.426;2022-08-01T10:57:05;4.60;;;2.70;;
7473;SDS011;3778;42.572;23.426;2022-08-01T10:59:33;3.50;;;3.20;;
7473;SDS011;3778;42.572;23.426;2022-08-01T11:02:00;6.50;;;3.10;;
7473;SDS011;3778;42.572;23.426;2022-08-01T11:04:32;3.30;;;3.00;;
7473;SDS011;3778;42.572;23.426;2022-08-01T11:07:02;3.80;;;2.70;;
7473;SDS011;3778;42.572;23.426;2022-08-01T11:09:37;3.90;;;3.37;;
7473;SDS011;3778;42.572;23.426;2022-08-01T11:12:08;4.30;;;3.13;;
7473;SDS011;3778;42.572;23.426;2022-08-01T11:17:42;4.13;;;3.20;;
7473;SDS011;3778;42.572;23.426;2022-08-01T11:20:13;3.47;;;2.80;;
7473;SDS011;3778;42.572;23.426;2022-08-01T11:31:38;2.93;;;2.63;;
7473;SDS011;3778;42.572;23.426;2022-08-01T11:34:05;3.80;;;2.80;;
7473;SDS011;3778;42.572;23.426;2022-08-01T11:36:32;3.10;;;2.80;;
7473;SDS011;3778;42.572;23.426;2022-08-01T11:39:15;6.17;;;2.90;;
7473;SDS011;3778;42.572;23.426;2022-08-01T11:41:44;5.80;;;2.50;;
7473;SDS011;3778;42.572;23.426;2022-08-01T11:44:14;3.23;;;2.50;;
7473;SDS011;3778;42.572;23.426;2022-08-01T11:46:56;5.80;;;2.80;;
7473;SDS011;3778;42.572;23.426;2022-08-01T11:52:26;3.60;;;3.20;;
7473;SDS011;3778;42.572;23.426;2022-08-01T11:54:54;4.87;;;2.60;;
7473;SDS011;3778;42.572;23.426;2022-08-01T11:57:22;3.88;;;2.55;;
7473;SDS011;3778;42.572;23.426;2022-08-01T11:59:52;4.90;;;2.80;;
7473;SDS011;3778;42.572;23.426;2022-08-01T12:02:21;3.53;;;2.70;;
7473;SDS011;3778;42.572;23.426;2022-08-01T12:04:50;3.23;;;2.93;;
7473;SDS011;3778;42.572;23.426;2022-08-01T12:07:21;4.73;;;2.47;;
7473;SDS011;3778;42.572;23.426;2022-08-01T12:09:55;3.57;;;3.10;;
7473;SDS011;3778;42.572;23.426;2022-08-01T12:12:24;11.70;;;2.67;;
7473;SDS011;3778;42.572;23.426;2022-08-01T12:14:57;3.10;;;2.80;;
7473;SDS011;3778;42.572;23.426;2022-08-01T12:17:29;3.90;;;3.00;;
7473;SDS011;3778;42.572;23.426;2022-08-01T12:19:57;3.50;;;3.20;;
7473;SDS011;3778;42.572;23.426;2022-08-01T12:22:24;3.30;;;3.00;;
7473;SDS011;3778;42.572;23.426;2022-08-01T12:24:51;4.70;;;3.20;;
7473;SDS011;3778;42.572;23.426;2022-08-01T12:27:25;4.07;;;3.53;;
7473;SDS011;3778;42.572;23.426;2022-08-01T12:29:53;4.20;;;3.40;;
7473;SDS011;3778;42.572;23.426;2022-08-01T12:32:22;3.63;;;3.27;;
7473;SDS011;3778;42.572;23.426;2022-08-01T12:34:51;7.70;;;3.42;;
7473;SDS011;3778;42.572;23.426;2022-08-01T12:37:20;3.70;;;3.30;;
7473;SDS011;3778;42.572;23.426;2022-08-01T12:39:47;5.00;;;3.27;;
7473;SDS011;3778;42.572;23.426;2022-08-01T12:42:14;7.03;;;2.93;;
7473;SDS011;3778;42.572;23.426;2022-08-01T12:44:42;3.73;;;3.40;;
7473;SDS011;3778;42.572;23.426;2022-08-01T12:47:11;4.80;;;3.00;;
7473;SDS011;3778;42.572;23.426;2022-08-01T12:49:41;7.67;;;3.17;;
7473;SDS011;3778;42.572;23.426;2022-08-01T12:52:10;3.35;;;3.05;;
7473;SDS011;3778;42.572;23.426;2022-08-01T12:57:26;5.43;;;3.40;;
7473;SDS011;3778;42.572;23.426;2022-08-01T12:59:59;3.60;;;3.30;;
7473;SDS011;3778;42.572;23.426;2022-08-01T13:02:31;3.45;;;3.15;;
7473;SDS011;3778;42.572;23.426;2022-08-01T13:05:00;3.97;;;3.43;;
7473;SDS011;3778;42.572;23.426;2022-08-01T13:07:34;4.70;;;3.40;;
7473;SDS011;3778;42.572;23.426;2022-08-01T13:10:02;5.18;;;3.42;;
7473;SDS011;3778;42.572;23.426;2022-08-01T13:12:29;5.90;;;2.78;;
7473;SDS011;3778;42.572;23.426;2022-08-01T13:14:56;3.88;;;3.15;;
7473;SDS011;3778;42.572;23.426;2022-08-01T13:17:30;4.55;;;3.25;;
7473;SDS011;3778;42.572;23.426;2022-08-01T13:19:57;6.55;;;3.10;;
7473;SDS011;3778;42.572;23.426;2022-08-01T13:22:32;3.67;;;3.38;;
7473;SDS011;3778;42.572;23.426;2022-08-01T13:25:09;3.65;;;3.35;;
7473;SDS011;3778;42.572;23.426;2022-08-01T13:27:36;3.60;;;3.30;;
7473;SDS011;3778;42.572;23.426;2022-08-01T13:30:09;3.67;;;3.08;;
7473;SDS011;3778;42.572;23.426;2022-08-01T13:32:37;4.60;;;3.15;;
7473;SDS011;3778;42.572;23.426;2022-08-01T13:35:05;4.13;;;3.13;;
7473;SDS011;3778;42.572;23.426;2022-08-01T13:37:34;6.28;;;2.92;;
7473;SDS011;3778;42.572;23.426;2022-08-01T13:40:01;3.25;;;3.00;;
7473;SDS011;3778;42.572;23.426;2022-08-01T13:42:28;8.55;;;3.20;;
7473;SDS011;3778;42.572;23.426;2022-08-01T13:44:56;2.92;;;2.70;;
7473;SDS011;3778;42.572;23.426;2022-08-01T13:47:24;4.40;;;3.17;;
7473;SDS011;3778;42.572;23.426;2022-08-01T13:49:50;2.90;;;2.70;;
7473;SDS011;3778;42.572;23.426;2022-08-01T13:52:17;3.38;;;3.08;;
7473;SDS011;3778;42.572;23.426;2022-08-01T13:54:45;5.93;;;3.10;;
7473;SDS011;3778;42.572;23.426;2022-08-01T13:57:12;3.03;;;2.75;;
7473;SDS011;3778;42.572;23.426;2022-08-01T13:59:41;5.68;;;3.33;;
7473;SDS011;3778;42.572;23.426;2022-08-01T14:02:08;3.65;;;2.85;;
7473;SDS011;3778;42.572;23.426;2022-08-01T14:04:34;4.40;;;2.90;;
7473;SDS011;3778;42.572;23.426;2022-08-01T14:07:01;3.22;;;2.80;;
7473;SDS011;3778;42.572;23.426;2022-08-01T14:09:28;3.38;;;3.03;;
7473;SDS011;3778;42.572;23.426;2022-08-01T14:11:58;3.45;;;3.15;;
7473;SDS011;3778;42.572;23.426;2022-08-01T14:14:26;4.07;;;2.90;;
7473;SDS011;3778;42.572;23.426;2022-08-01T14:16:59;5.18;;;2.85;;
7473;SDS011;3778;42.572;23.426;2022-08-01T14:19:33;3.20;;;2.90;;
7473;SDS011;3778;42.572;23.426;2022-08-01T14:22:02;8.20;;;2.70;;
7473;SDS011;3778;42.572;23.426;2022-08-01T14:24:29;4.53;;;2.80;;
7473;SDS011;3778;42.572;23.426;2022-08-01T14:27:00;4.47;;;3.20;;
7473;SDS011;3778;42.572;23.426;2022-08-01T14:29:31;8.35;;;3.60;;
7473;SDS011;3778;42.572;23.426;2022-08-01T14:31:58;3.40;;;3.10;;
7473;SDS011;3778;42.572;23.426;2022-08-01T14:34:25;3.53;;;3.00;;
7473;SDS011;3778;42.572;23.426;2022-08-01T14:36:52;3.40;;;3.10;;
7473;SDS011;3778;42.572;23.426;2022-08-01T14:39:19;4.03;;;3.03;;
7473;SDS011;3778;42.572;23.426;2022-08-01T14:41:46;5.65;;;3.47;;
7473;SDS011;3778;42.572;23.426;2022-08-01T14:44:14;3.78;;;3.47;;
7473;SDS011;3778;42.572;23.426;2022-08-01T14:46:41;3.88;;;2.95;;
7473;SDS011;3778;42.572;23.426;2022-08-01T14:49:09;3.05;;;2.75;;
7473;SDS011;3778;42.572;23.426;2022-08-01T14:51:36;3.53;;;3.22;;
7473;SDS011;3778;42.572;23.426;2022-08-01T14:54:03;3.30;;;3.00;;
7473;SDS011;3778;42.572;23.426;2022-08-01T14:56:30;6.07;;;3.28;;
7473;SDS011;3778;42.572;23.426;2022-08-01T14:58:57;3.75;;;3.13;;
7473;SDS011;3778;42.572;23.426;2022-08-01T15:01:26;3.20;;;2.90;;
7473;SDS011;3778;42.572;23.426;2022-08-01T15:03:53;3.58;;;3.15;;
7473;SDS011;3778;42.572;23.426;2022-08-01T15:06:20;3.80;;;3.00;;
7473;SDS011;3778;42.572;23.426;2022-08-01T15:08:47;3.47;;;3.17;;
7473;SDS011;3778;42.572;23.426;2022-08-01T15:11:14;3.30;;;3.00;;
7473;SDS011;3778;42.572;23.426;2022-08-01T15:13:41;6.88;;;2.85;;
7473;SDS011;3778;42.572;23.426;2022-08-01T15:16:08;3.70;;;2.78;;
7473;SDS011;3778;42.572;23.426;2022-08-01T15:18:36;2.97;;;2.60;;
7473;SDS011;3778;42.572;23.426;2022-08-01T15:21:03;3.20;;;3.00;;
7473;SDS011;3778;42.572;23.426;2022-08-01T15:23:29;3.97;;;2.70;;
7473;SDS011;3778;42.572;23.426;2022-08-01T15:25:56;5.25;;;2.70;;
7473;SDS011;3778;42.572;23.426;2022-08-01T15:28:23;2.72;;;2.47;;
7473;SDS011;3778;42.572;23.426;2022-08-01T15:30:50;3.42;;;3.13;;
7473;SDS011;3778;42.572;23.426;2022-08-01T15:33:17;2.67;;;2.45;;
7473;SDS011;3778;42.572;23.426;2022-08-01T15:35:47;4.32;;;2.67;;